sensor_id;sensor_type;location;lat;lon;timestamp;P1;durP1;ratioP1;P2;durP2;ratioP2
57891;SDS011;43708;48.828;9.166;2023-04-24T00:02:22;0.35;;;0.30;;
57891;SDS011;43708;48.828;9.166;2023-04-24T00:04:48;0.40;;;0.25;;
57891;SDS011;43708;48.828;9.166;2023-04-24T00:07:14;0.30;;;0.30;;
57891;SDS011;43708;48.828;9.166;2023-04-24T00:09:41;0.52;;;0.47;;
57891;SDS011;43708;48.828;9.166;2023-04-24T00:12:08;0.40;;;0.40;;
57891;SDS011;43708;48.828;9.166;2023-04-24T00:14:34;0.40;;;0.35;;
57891;SDS011;43708;48.828;9.166;2023-04-24T00:17:00;0.55;;;0.47;;
57891;SDS011;43708;48.828;9.166;2023-04-24T00:19:27;0.55;;;0.50;;
57891;SDS011;43708;48.828;9.166;2023-04-24T00:21:53;0.80;;;0.60;;
57891;SDS011;43708;48.828;9.166;2023-04-24T00:24:19;0.45;;;0.43;;
57891;SDS011;43708;48.828;9.166;2023-04-24T00:26:45;0.40;;;0.30;;
57891;SDS011;43708;48.828;9.166;2023-04-24T00:29:11;0.40;;;0.30;;
57891;SDS011;43708;48.828;9.166;2023-04-24T00:31:39;0.38;;;0.30;;
57891;SDS011;43708;48.828;9.166;2023-04-24T00:34:05;0.50;;;0.50;;
57891;SDS011;43708;48.828;9.166;2023-04-24T00:36:30;0.40;;;0.40;;
57891;SDS011;43708;48.828;9.166;2023-04-24T00:38:57;0.40;;;0.40;;
57891;SDS011;43708;48.828;9.166;2023-04-24T00:41:22;0.40;;;0.30;;
57891;SDS011;43708;48.828;9.166;2023-04-24T00:43:49;0.60;;;0.30;;
57891;SDS011;43708;48.828;9.166;2023-04-24T00:46:15;0.40;;;0.30;;
57891;SDS011;43708;48.828;9.166;2023-04-24T00:48:41;0.40;;;0.30;;
57891;SDS011;43708;48.828;9.166;2023-04-24T00:51:08;0.40;;;0.40;;
57891;SDS011;43708;48.828;9.166;2023-04-24T00:53:34;0.43;;;0.35;;
57891;SDS011;43708;48.828;9.166;2023-04-24T00:55:59;0.38;;;0.30;;
57891;SDS011;43708;48.828;9.166;2023-04-24T00:58:25;1.05;;;0.40;;
57891;SDS011;43708;48.828;9.166;2023-04-24T01:00:51;0.40;;;0.40;;
57891;SDS011;43708;48.828;9.166;2023-04-24T01:03:22;0.57;;;0.50;;
57891;SDS011;43708;48.828;9.166;2023-04-24T01:05:51;0.30;;;0.20;;
57891;SDS011;43708;48.828;9.166;2023-04-24T01:08:17;0.43;;;0.43;;
57891;SDS011;43708;48.828;9.166;2023-04-24T01:10:44;0.73;;;0.57;;
57891;SDS011;43708;48.828;9.166;2023-04-24T01:13:11;0.40;;;0.40;;
57891;SDS011;43708;48.828;9.166;2023-04-24T01:15:36;0.40;;;0.40;;
57891;SDS011;43708;48.828;9.166;2023-04-24T01:18:02;0.70;;;0.43;;
57891;SDS011;43708;48.828;9.166;2023-04-24T01:20:28;0.40;;;0.40;;
57891;SDS011;43708;48.828;9.166;2023-04-24T01:22:55;0.60;;;0.55;;
57891;SDS011;43708;48.828;9.166;2023-04-24T01:25:21;0.30;;;0.30;;
57891;SDS011;43708;48.828;9.166;2023-04-24T01:27:48;0.43;;;0.40;;
57891;SDS011;43708;48.828;9.166;2023-04-24T01:30:13;0.50;;;0.50;;
57891;SDS011;43708;48.828;9.166;2023-04-24T01:32:41;0.35;;;0.35;;
57891;SDS011;43708;48.828;9.166;2023-04-24T01:35:09;0.68;;;0.50;;
57891;SDS011;43708;48.828;9.166;2023-04-24T01:37:35;0.30;;;0.30;;
57891;SDS011;43708;48.828;9.166;2023-04-24T01:40:02;0.75;;;0.50;;
57891;SDS011;43708;48.828;9.166;2023-04-24T01:42:29;0.30;;;0.30;;
57891;SDS011;43708;48.828;9.166;2023-04-24T01:44:55;0.30;;;0.30;;
57891;SDS011;43708;48.828;9.166;2023-04-24T01:47:21;0.40;;;0.35;;
57891;SDS011;43708;48.828;9.166;2023-04-24T01:49:48;0.30;;;0.28;;
57891;SDS011;43708;48.828;9.166;2023-04-24T01:52:14;0.40;;;0.30;;
57891;SDS011;43708;48.828;9.166;2023-04-24T01:54:41;0.40;;;0.38;;
57891;SDS011;43708;48.828;9.166;2023-04-24T01:57:07;0.40;;;0.40;;
57891;SDS011;43708;48.828;9.166;2023-04-24T01:59:33;0.50;;;0.30;;
57891;SDS011;43708;48.828;9.166;2023-04-24T02:02:01;0.40;;;0.30;;
57891;SDS011;43708;48.828;9.166;2023-04-24T02:04:27;0.40;;;0.30;;
57891;SDS011;43708;48.828;9.166;2023-04-24T02:06:53;0.30;;;0.30;;
57891;SDS011;43708;48.828;9.166;2023-04-24T02:09:19;0.50;;;0.40;;
57891;SDS011;43708;48.828;9.166;2023-04-24T02:11:45;0.40;;;0.32;;
57891;SDS011;43708;48.828;9.166;2023-04-24T02:14:10;0.40;;;0.40;;
57891;SDS011;43708;48.828;9.166;2023-04-24T02:16:36;0.30;;;0.20;;
57891;SDS011;43708;48.828;9.166;2023-04-24T02:19:02;0.50;;;0.38;;
57891;SDS011;43708;48.828;9.166;2023-04-24T02:21:28;0.40;;;0.30;;
57891;SDS011;43708;48.828;9.166;2023-04-24T02:23:55;0.30;;;0.30;;
57891;SDS011;43708;48.828;9.166;2023-04-24T02:26:21;0.40;;;0.40;;
57891;SDS011;43708;48.828;9.166;2023-04-24T02:28:47;0.30;;;0.30;;
57891;SDS011;43708;48.828;9.166;2023-04-24T02:31:12;0.50;;;0.40;;
57891;SDS011;43708;48.828;9.166;2023-04-24T02:33:38;0.52;;;0.32;;
57891;SDS011;43708;48.828;9.166;2023-04-24T02:36:04;0.30;;;0.30;;
57891;SDS011;43708;48.828;9.166;2023-04-24T02:38:30;0.32;;;0.32;;
57891;SDS011;43708;48.828;9.166;2023-04-24T02:40:55;0.55;;;0.43;;
57891;SDS011;43708;48.828;9.166;2023-04-24T02:43:21;0.65;;;0.45;;
57891;SDS011;43708;48.828;9.166;2023-04-24T02:45:46;0.40;;;0.30;;
57891;SDS011;43708;48.828;9.166;2023-04-24T02:48:12;0.38;;;0.30;;
57891;SDS011;43708;48.828;9.166;2023-04-24T02:50:37;0.30;;;0.30;;
57891;SDS011;43708;48.828;9.166;2023-04-24T02:53:03;0.40;;;0.40;;
57891;SDS011;43708;48.828;9.166;2023-04-24T02:55:29;0.30;;;0.20;;
57891;SDS011;43708;48.828;9.166;2023-04-24T02:57:55;0.32;;;0.30;;
57891;SDS011;43708;48.828;9.166;2023-04-24T03:00:20;0.30;;;0.28;;
57891;SDS011;43708;48.828;9.166;2023-04-24T03:02:46;0.57;;;0.30;;
57891;SDS011;43708;48.828;9.166;2023-04-24T03:05:12;0.30;;;0.30;;
57891;SDS011;43708;48.828;9.166;2023-04-24T03:07:37;0.38;;;0.38;;
57891;SDS011;43708;48.828;9.166;2023-04-24T03:10:03;0.30;;;0.20;;
57891;SDS011;43708;48.828;9.166;2023-04-24T03:12:30;0.68;;;0.30;;
57891;SDS011;43708;48.828;9.166;2023-04-24T03:14:59;0.30;;;0.30;;
57891;SDS011;43708;48.828;9.166;2023-04-24T03:17:25;0.40;;;0.35;;
57891;SDS011;43708;48.828;9.166;2023-04-24T03:19:50;0.52;;;0.20;;
57891;SDS011;43708;48.828;9.166;2023-04-24T03:22:16;0.38;;;0.30;;
57891;SDS011;43708;48.828;9.166;2023-04-24T03:24:41;0.30;;;0.30;;
57891;SDS011;43708;48.828;9.166;2023-04-24T03:27:07;0.30;;;0.30;;
57891;SDS011;43708;48.828;9.166;2023-04-24T03:29:33;0.30;;;0.25;;
57891;SDS011;43708;48.828;9.166;2023-04-24T03:31:58;0.30;;;0.22;;
57891;SDS011;43708;48.828;9.166;2023-04-24T03:34:24;0.38;;;0.28;;
57891;SDS011;43708;48.828;9.166;2023-04-24T03:36:49;0.52;;;0.30;;
57891;SDS011;43708;48.828;9.166;2023-04-24T03:39:15;0.38;;;0.38;;
57891;SDS011;43708;48.828;9.166;2023-04-24T03:41:41;0.40;;;0.40;;
57891;SDS011;43708;48.828;9.166;2023-04-24T03:44:06;0.65;;;0.40;;
57891;SDS011;43708;48.828;9.166;2023-04-24T03:46:32;0.30;;;0.17;;
57891;SDS011;43708;48.828;9.166;2023-04-24T03:48:57;0.55;;;0.35;;
57891;SDS011;43708;48.828;9.166;2023-04-24T03:51:23;0.30;;;0.30;;
57891;SDS011;43708;48.828;9.166;2023-04-24T03:53:49;0.30;;;0.30;;
57891;SDS011;43708;48.828;9.166;2023-04-24T03:56:15;0.30;;;0.20;;
57891;SDS011;43708;48.828;9.166;2023-04-24T03:58:40;0.30;;;0.25;;
57891;SDS011;43708;48.828;9.166;2023-04-24T04:01:07;0.55;;;0.40;;
57891;SDS011;43708;48.828;9.166;2023-04-24T04:03:32;0.40;;;0.30;;
57891;SDS011;43708;48.828;9.166;2023-04-24T04:05:58;0.40;;;0.40;;
57891;SDS011;43708;48.828;9.166;2023-04-24T04:08:24;0.40;;;0.30;;
57891;SDS011;43708;48.828;9.166;2023-04-24T04:10:49;0.40;;;0.25;;
57891;SDS011;43708;48.828;9.166;2023-04-24T04:13:16;0.30;;;0.30;;
57891;SDS011;43708;48.828;9.166;2023-04-24T04:15:42;0.30;;;0.30;;
57891;SDS011;43708;48.828;9.166;2023-04-24T04:18:07;1.50;;;0.30;;
57891;SDS011;43708;48.828;9.166;2023-04-24T04:20:33;0.30;;;0.25;;
57891;SDS011;43708;48.828;9.166;2023-04-24T04:22:59;1.02;;;0.40;;
57891;SDS011;43708;48.828;9.166;2023-04-24T04:25:24;0.35;;;0.35;;
57891;SDS011;43708;48.828;9.166;2023-04-24T04:27:50;0.80;;;0.30;;
57891;SDS011;43708;48.828;9.166;2023-04-24T04:30:16;0.30;;;0.30;;
57891;SDS011;43708;48.828;9.166;2023-04-24T04:32:43;0.30;;;0.30;;
57891;SDS011;43708;48.828;9.166;2023-04-24T04:35:09;0.40;;;0.30;;
57891;SDS011;43708;48.828;9.166;2023-04-24T04:37:35;0.30;;;0.30;;
57891;SDS011;43708;48.828;9.166;2023-04-24T04:40:01;0.30;;;0.30;;
57891;SDS011;43708;48.828;9.166;2023-04-24T04:42:36;0.50;;;0.50;;
57891;SDS011;43708;48.828;9.166;2023-04-24T04:45:06;0.30;;;0.30;;
57891;SDS011;43708;48.828;9.166;2023-04-24T04:47:33;0.82;;;0.30;;
57891;SDS011;43708;48.828;9.166;2023-04-24T04:49:59;0.30;;;0.30;;
57891;SDS011;43708;48.828;9.166;2023-04-24T04:52:25;0.55;;;0.30;;
57891;SDS011;43708;48.828;9.166;2023-04-24T04:54:51;0.30;;;0.30;;
57891;SDS011;43708;48.828;9.166;2023-04-24T04:57:17;0.30;;;0.30;;
57891;SDS011;43708;48.828;9.166;2023-04-24T04:59:42;0.30;;;0.30;;
57891;SDS011;43708;48.828;9.166;2023-04-24T05:02:08;0.40;;;0.30;;
57891;SDS011;43708;48.828;9.166;2023-04-24T05:04:34;0.40;;;0.22;;
57891;SDS011;43708;48.828;9.166;2023-04-24T05:06:59;0.75;;;0.40;;
57891;SDS011;43708;48.828;9.166;2023-04-24T05:09:25;0.40;;;0.20;;
57891;SDS011;43708;48.828;9.166;2023-04-24T05:11:52;0.60;;;0.40;;
57891;SDS011;43708;48.828;9.166;2023-04-24T05:14:18;0.82;;;0.32;;
57891;SDS011;43708;48.828;9.166;2023-04-24T05:16:44;0.40;;;0.40;;
57891;SDS011;43708;48.828;9.166;2023-04-24T05:19:10;0.35;;;0.30;;
57891;SDS011;43708;48.828;9.166;2023-04-24T05:21:39;0.50;;;0.40;;
57891;SDS011;43708;48.828;9.166;2023-04-24T05:24:06;0.30;;;0.30;;
57891;SDS011;43708;48.828;9.166;2023-04-24T05:26:32;0.35;;;0.30;;
57891;SDS011;43708;48.828;9.166;2023-04-24T05:28:57;0.30;;;0.30;;
57891;SDS011;43708;48.828;9.166;2023-04-24T05:31:23;0.35;;;0.32;;
57891;SDS011;43708;48.828;9.166;2023-04-24T05:33:48;0.30;;;0.30;;
57891;SDS011;43708;48.828;9.166;2023-04-24T05:36:14;0.38;;;0.30;;
57891;SDS011;43708;48.828;9.166;2023-04-24T05:38:40;0.55;;;0.35;;
57891;SDS011;43708;48.828;9.166;2023-04-24T05:41:05;0.40;;;0.30;;
57891;SDS011;43708;48.828;9.166;2023-04-24T05:43:31;2.05;;;0.45;;
57891;SDS011;43708;48.828;9.166;2023-04-24T05:45:56;0.40;;;0.30;;
57891;SDS011;43708;48.828;9.166;2023-04-24T05:48:22;0.55;;;0.30;;
57891;SDS011;43708;48.828;9.166;2023-04-24T05:50:48;2.63;;;0.38;;
57891;SDS011;43708;48.828;9.166;2023-04-24T05:53:14;0.82;;;0.57;;
57891;SDS011;43708;48.828;9.166;2023-04-24T05:55:39;2.20;;;0.30;;
57891;SDS011;43708;48.828;9.166;2023-04-24T05:58:05;0.30;;;0.20;;
57891;SDS011;43708;48.828;9.166;2023-04-24T06:00:31;0.40;;;0.40;;
57891;SDS011;43708;48.828;9.166;2023-04-24T06:02:57;2.13;;;0.40;;
57891;SDS011;43708;48.828;9.166;2023-04-24T06:05:23;0.30;;;0.20;;
57891;SDS011;43708;48.828;9.166;2023-04-24T06:07:50;0.30;;;0.20;;
57891;SDS011;43708;48.828;9.166;2023-04-24T06:10:15;0.50;;;0.30;;
57891;SDS011;43708;48.828;9.166;2023-04-24T06:12:41;0.40;;;0.30;;
57891;SDS011;43708;48.828;9.166;2023-04-24T06:15:07;0.30;;;0.30;;
57891;SDS011;43708;48.828;9.166;2023-04-24T06:17:33;0.30;;;0.20;;
57891;SDS011;43708;48.828;9.166;2023-04-24T06:19:58;0.70;;;0.30;;
57891;SDS011;43708;48.828;9.166;2023-04-24T06:22:24;0.40;;;0.30;;
57891;SDS011;43708;48.828;9.166;2023-04-24T06:24:50;0.40;;;0.30;;
57891;SDS011;43708;48.828;9.166;2023-04-24T06:27:15;0.38;;;0.38;;
57891;SDS011;43708;48.828;9.166;2023-04-24T06:29:41;0.30;;;0.20;;
57891;SDS011;43708;48.828;9.166;2023-04-24T06:32:06;0.40;;;0.40;;
57891;SDS011;43708;48.828;9.166;2023-04-24T06:34:32;0.55;;;0.40;;
57891;SDS011;43708;48.828;9.166;2023-04-24T06:36:59;1.23;;;0.75;;
57891;SDS011;43708;48.828;9.166;2023-04-24T06:39:25;0.50;;;0.32;;
57891;SDS011;43708;48.828;9.166;2023-04-24T06:41:50;3.78;;;0.57;;
57891;SDS011;43708;48.828;9.166;2023-04-24T06:44:16;0.60;;;0.40;;
57891;SDS011;43708;48.828;9.166;2023-04-24T06:46:41;0.50;;;0.40;;
57891;SDS011;43708;48.828;9.166;2023-04-24T06:49:07;0.40;;;0.40;;
57891;SDS011;43708;48.828;9.166;2023-04-24T06:51:33;0.60;;;0.30;;
57891;SDS011;43708;48.828;9.166;2023-04-24T06:53:58;0.70;;;0.40;;
57891;SDS011;43708;48.828;9.166;2023-04-24T06:56:25;0.30;;;0.30;;
57891;SDS011;43708;48.828;9.166;2023-04-24T06:58:51;0.98;;;0.40;;
57891;SDS011;43708;48.828;9.166;2023-04-24T07:01:18;1.15;;;0.40;;
57891;SDS011;43708;48.828;9.166;2023-04-24T07:03:43;0.30;;;0.30;;
57891;SDS011;43708;48.828;9.166;2023-04-24T07:06:09;0.63;;;0.32;;
57891;SDS011;43708;48.828;9.166;2023-04-24T07:08:36;0.30;;;0.30;;
57891;SDS011;43708;48.828;9.166;2023-04-24T07:11:02;0.35;;;0.30;;
57891;SDS011;43708;48.828;9.166;2023-04-24T07:13:28;0.55;;;0.43;;
57891;SDS011;43708;48.828;9.166;2023-04-24T07:15:53;1.00;;;0.40;;
57891;SDS011;43708;48.828;9.166;2023-04-24T07:18:20;0.65;;;0.45;;
57891;SDS011;43708;48.828;9.166;2023-04-24T07:20:46;0.70;;;0.40;;
57891;SDS011;43708;48.828;9.166;2023-04-24T07:23:12;1.13;;;0.45;;
57891;SDS011;43708;48.828;9.166;2023-04-24T07:25:37;0.85;;;0.45;;
57891;SDS011;43708;48.828;9.166;2023-04-24T07:28:04;1.25;;;0.57;;
57891;SDS011;43708;48.828;9.166;2023-04-24T07:30:30;1.02;;;0.47;;
57891;SDS011;43708;48.828;9.166;2023-04-24T07:32:57;1.58;;;0.55;;
57891;SDS011;43708;48.828;9.166;2023-04-24T07:35:23;0.55;;;0.43;;
57891;SDS011;43708;48.828;9.166;2023-04-24T07:37:50;0.50;;;0.50;;
57891;SDS011;43708;48.828;9.166;2023-04-24T07:40:19;0.75;;;0.60;;
57891;SDS011;43708;48.828;9.166;2023-04-24T07:42:45;1.85;;;0.63;;
57891;SDS011;43708;48.828;9.166;2023-04-24T07:45:13;1.10;;;0.52;;
57891;SDS011;43708;48.828;9.166;2023-04-24T07:47:39;0.80;;;0.63;;
57891;SDS011;43708;48.828;9.166;2023-04-24T07:50:08;0.82;;;0.50;;
57891;SDS011;43708;48.828;9.166;2023-04-24T07:52:34;0.50;;;0.50;;
57891;SDS011;43708;48.828;9.166;2023-04-24T07:55:00;0.55;;;0.50;;
57891;SDS011;43708;48.828;9.166;2023-04-24T07:57:27;0.47;;;0.40;;
57891;SDS011;43708;48.828;9.166;2023-04-24T07:59:52;0.93;;;0.55;;
57891;SDS011;43708;48.828;9.166;2023-04-24T08:02:18;0.95;;;0.60;;
57891;SDS011;43708;48.828;9.166;2023-04-24T08:04:44;2.05;;;0.80;;
57891;SDS011;43708;48.828;9.166;2023-04-24T08:07:10;1.95;;;0.55;;
57891;SDS011;43708;48.828;9.166;2023-04-24T08:09:37;0.60;;;0.50;;
57891;SDS011;43708;48.828;9.166;2023-04-24T08:12:03;0.60;;;0.60;;
57891;SDS011;43708;48.828;9.166;2023-04-24T08:14:29;1.30;;;0.70;;
57891;SDS011;43708;48.828;9.166;2023-04-24T08:16:55;2.15;;;0.80;;
57891;SDS011;43708;48.828;9.166;2023-04-24T08:19:21;0.90;;;0.60;;
57891;SDS011;43708;48.828;9.166;2023-04-24T08:21:47;2.05;;;0.60;;
57891;SDS011;43708;48.828;9.166;2023-04-24T08:24:12;1.35;;;0.60;;
57891;SDS011;43708;48.828;9.166;2023-04-24T08:26:38;0.95;;;0.50;;
57891;SDS011;43708;48.828;9.166;2023-04-24T08:29:04;1.58;;;0.52;;
57891;SDS011;43708;48.828;9.166;2023-04-24T08:31:31;0.95;;;0.60;;
57891;SDS011;43708;48.828;9.166;2023-04-24T08:33:57;1.10;;;0.60;;
57891;SDS011;43708;48.828;9.166;2023-04-24T08:36:23;0.75;;;0.60;;
57891;SDS011;43708;48.828;9.166;2023-04-24T08:38:49;0.70;;;0.68;;
57891;SDS011;43708;48.828;9.166;2023-04-24T08:41:15;2.33;;;0.80;;
57891;SDS011;43708;48.828;9.166;2023-04-24T08:43:42;1.67;;;0.80;;
57891;SDS011;43708;48.828;9.166;2023-04-24T08:46:08;2.65;;;0.90;;
57891;SDS011;43708;48.828;9.166;2023-04-24T08:48:35;1.20;;;0.47;;
57891;SDS011;43708;48.828;9.166;2023-04-24T08:51:01;0.82;;;0.63;;
57891;SDS011;43708;48.828;9.166;2023-04-24T08:53:31;1.40;;;0.80;;
57891;SDS011;43708;48.828;9.166;2023-04-24T08:55:58;1.05;;;0.65;;
57891;SDS011;43708;48.828;9.166;2023-04-24T08:58:26;1.75;;;0.77;;
57891;SDS011;43708;48.828;9.166;2023-04-24T09:00:55;0.73;;;0.57;;
57891;SDS011;43708;48.828;9.166;2023-04-24T09:03:21;1.15;;;0.55;;
57891;SDS011;43708;48.828;9.166;2023-04-24T09:05:50;0.82;;;0.68;;
57891;SDS011;43708;48.828;9.166;2023-04-24T09:08:19;0.80;;;0.73;;
57891;SDS011;43708;48.828;9.166;2023-04-24T09:10:48;1.13;;;0.70;;
57891;SDS011;43708;48.828;9.166;2023-04-24T09:13:15;0.82;;;0.60;;
57891;SDS011;43708;48.828;9.166;2023-04-24T09:15:42;1.17;;;0.50;;
57891;SDS011;43708;48.828;9.166;2023-04-24T09:18:09;1.02;;;0.60;;
57891;SDS011;43708;48.828;9.166;2023-04-24T09:20:34;1.00;;;0.70;;
57891;SDS011;43708;48.828;9.166;2023-04-24T09:23:20;1.08;;;0.70;;
57891;SDS011;43708;48.828;9.166;2023-04-24T09:25:46;2.30;;;0.77;;
57891;SDS011;43708;48.828;9.166;2023-04-24T09:28:22;1.05;;;0.60;;
57891;SDS011;43708;48.828;9.166;2023-04-24T09:31:01;0.90;;;0.52;;
57891;SDS011;43708;48.828;9.166;2023-04-24T09:33:28;1.50;;;0.80;;
57891;SDS011;43708;48.828;9.166;2023-04-24T09:35:54;1.30;;;0.90;;
57891;SDS011;43708;48.828;9.166;2023-04-24T09:38:20;1.63;;;0.80;;
57891;SDS011;43708;48.828;9.166;2023-04-24T09:41:01;1.17;;;0.60;;
57891;SDS011;43708;48.828;9.166;2023-04-24T09:43:31;0.73;;;0.60;;
57891;SDS011;43708;48.828;9.166;2023-04-24T09:45:58;0.68;;;0.60;;
57891;SDS011;43708;48.828;9.166;2023-04-24T09:48:34;0.95;;;0.60;;
57891;SDS011;43708;48.828;9.166;2023-04-24T09:51:01;1.05;;;0.65;;
57891;SDS011;43708;48.828;9.166;2023-04-24T09:53:29;0.55;;;0.50;;
57891;SDS011;43708;48.828;9.166;2023-04-24T09:55:56;0.43;;;0.40;;
57891;SDS011;43708;48.828;9.166;2023-04-24T09:58:32;1.42;;;0.70;;
57891;SDS011;43708;48.828;9.166;2023-04-24T10:00:59;0.50;;;0.50;;
57891;SDS011;43708;48.828;9.166;2023-04-24T10:03:25;0.93;;;0.60;;
57891;SDS011;43708;48.828;9.166;2023-04-24T10:05:54;0.50;;;0.50;;
57891;SDS011;43708;48.828;9.166;2023-04-24T10:08:24;1.13;;;0.60;;
57891;SDS011;43708;48.828;9.166;2023-04-24T10:10:51;0.98;;;0.60;;
57891;SDS011;43708;48.828;9.166;2023-04-24T10:13:17;0.50;;;0.43;;
57891;SDS011;43708;48.828;9.166;2023-04-24T10:15:43;0.90;;;0.68;;
57891;SDS011;43708;48.828;9.166;2023-04-24T10:18:09;0.70;;;0.60;;
57891;SDS011;43708;48.828;9.166;2023-04-24T10:20:36;1.23;;;0.70;;
57891;SDS011;43708;48.828;9.166;2023-04-24T10:23:03;0.98;;;0.60;;
57891;SDS011;43708;48.828;9.166;2023-04-24T10:25:30;0.82;;;0.60;;
57891;SDS011;43708;48.828;9.166;2023-04-24T10:27:58;0.55;;;0.55;;
57891;SDS011;43708;48.828;9.166;2023-04-24T10:30:25;0.50;;;0.43;;
57891;SDS011;43708;48.828;9.166;2023-04-24T10:32:55;0.60;;;0.60;;
57891;SDS011;43708;48.828;9.166;2023-04-24T10:35:21;0.50;;;0.50;;
57891;SDS011;43708;48.828;9.166;2023-04-24T10:37:52;0.73;;;0.57;;
57891;SDS011;43708;48.828;9.166;2023-04-24T10:40:34;0.63;;;0.63;;
57891;SDS011;43708;48.828;9.166;2023-04-24T10:43:04;0.60;;;0.57;;
57891;SDS011;43708;48.828;9.166;2023-04-24T10:45:32;0.60;;;0.60;;
57891;SDS011;43708;48.828;9.166;2023-04-24T10:48:01;1.23;;;0.50;;
57891;SDS011;43708;48.828;9.166;2023-04-24T10:50:28;0.50;;;0.50;;
57891;SDS011;43708;48.828;9.166;2023-04-24T10:53:06;0.70;;;0.68;;
57891;SDS011;43708;48.828;9.166;2023-04-24T10:55:43;0.95;;;0.70;;
57891;SDS011;43708;48.828;9.166;2023-04-24T10:58:15;0.50;;;0.50;;
57891;SDS011;43708;48.828;9.166;2023-04-24T11:00:42;0.50;;;0.50;;
57891;SDS011;43708;48.828;9.166;2023-04-24T11:03:24;0.70;;;0.70;;
57891;SDS011;43708;48.828;9.166;2023-04-24T11:05:51;0.63;;;0.55;;
57891;SDS011;43708;48.828;9.166;2023-04-24T11:08:25;0.73;;;0.73;;
57891;SDS011;43708;48.828;9.166;2023-04-24T11:11:33;1.50;;;0.60;;
57891;SDS011;43708;48.828;9.166;2023-04-24T11:21:48;0.82;;;0.40;;
57891;SDS011;43708;48.828;9.166;2023-04-24T11:29:39;0.75;;;0.75;;
57891;SDS011;43708;48.828;9.166;2023-04-24T11:34:48;1.85;;;0.77;;
57891;SDS011;43708;48.828;9.166;2023-04-24T11:37:15;0.70;;;0.60;;
57891;SDS011;43708;48.828;9.166;2023-04-24T11:39:41;0.60;;;0.60;;
57891;SDS011;43708;48.828;9.166;2023-04-24T11:42:07;0.50;;;0.50;;
57891;SDS011;43708;48.828;9.166;2023-04-24T11:44:34;0.98;;;0.68;;
57891;SDS011;43708;48.828;9.166;2023-04-24T11:47:04;0.50;;;0.50;;
57891;SDS011;43708;48.828;9.166;2023-04-24T11:49:30;1.02;;;0.60;;
57891;SDS011;43708;48.828;9.166;2023-04-24T11:51:56;0.88;;;0.60;;
57891;SDS011;43708;48.828;9.166;2023-04-24T11:54:21;0.73;;;0.50;;
57891;SDS011;43708;48.828;9.166;2023-04-24T11:56:47;0.70;;;0.60;;
57891;SDS011;43708;48.828;9.166;2023-04-24T11:59:13;0.77;;;0.60;;
57891;SDS011;43708;48.828;9.166;2023-04-24T12:01:42;0.63;;;0.52;;
57891;SDS011;43708;48.828;9.166;2023-04-24T12:04:12;1.63;;;0.50;;
57891;SDS011;43708;48.828;9.166;2023-04-24T12:06:39;1.08;;;0.73;;
57891;SDS011;43708;48.828;9.166;2023-04-24T12:09:04;0.70;;;0.70;;
57891;SDS011;43708;48.828;9.166;2023-04-24T12:11:31;0.82;;;0.60;;
57891;SDS011;43708;48.828;9.166;2023-04-24T12:13:57;1.40;;;0.52;;
57891;SDS011;43708;48.828;9.166;2023-04-24T12:16:22;0.50;;;0.50;;
57891;SDS011;43708;48.828;9.166;2023-04-24T12:18:51;0.68;;;0.35;;
57891;SDS011;43708;48.828;9.166;2023-04-24T12:21:20;0.60;;;0.60;;
57891;SDS011;43708;48.828;9.166;2023-04-24T12:23:47;0.88;;;0.60;;
57891;SDS011;43708;48.828;9.166;2023-04-24T12:26:17;1.08;;;0.70;;
57891;SDS011;43708;48.828;9.166;2023-04-24T12:28:45;1.45;;;0.70;;
57891;SDS011;43708;48.828;9.166;2023-04-24T12:31:14;0.70;;;0.70;;
57891;SDS011;43708;48.828;9.166;2023-04-24T12:33:41;0.90;;;0.70;;
57891;SDS011;43708;48.828;9.166;2023-04-24T12:36:09;0.60;;;0.50;;
57891;SDS011;43708;48.828;9.166;2023-04-24T12:38:35;0.60;;;0.40;;
57891;SDS011;43708;48.828;9.166;2023-04-24T12:41:14;2.15;;;0.60;;
57891;SDS011;43708;48.828;9.166;2023-04-24T12:43:50;0.60;;;0.60;;
57891;SDS011;43708;48.828;9.166;2023-04-24T12:46:19;0.80;;;0.80;;
57891;SDS011;43708;48.828;9.166;2023-04-24T12:48:45;0.77;;;0.60;;
57891;SDS011;43708;48.828;9.166;2023-04-24T12:51:10;0.80;;;0.63;;
57891;SDS011;43708;48.828;9.166;2023-04-24T12:53:36;0.65;;;0.65;;
57891;SDS011;43708;48.828;9.166;2023-04-24T12:56:01;0.50;;;0.50;;
57891;SDS011;43708;48.828;9.166;2023-04-24T12:58:27;1.08;;;0.70;;
57891;SDS011;43708;48.828;9.166;2023-04-24T13:00:53;1.08;;;0.60;;
57891;SDS011;43708;48.828;9.166;2023-04-24T13:03:19;0.50;;;0.50;;
57891;SDS011;43708;48.828;9.166;2023-04-24T13:05:44;0.80;;;0.60;;
57891;SDS011;43708;48.828;9.166;2023-04-24T13:08:10;0.60;;;0.60;;
57891;SDS011;43708;48.828;9.166;2023-04-24T13:10:37;0.90;;;0.70;;
57891;SDS011;43708;48.828;9.166;2023-04-24T13:13:03;0.40;;;0.40;;
57891;SDS011;43708;48.828;9.166;2023-04-24T13:15:29;0.60;;;0.60;;
57891;SDS011;43708;48.828;9.166;2023-04-24T13:17:54;0.57;;;0.57;;
57891;SDS011;43708;48.828;9.166;2023-04-24T13:20:20;0.60;;;0.60;;
57891;SDS011;43708;48.828;9.166;2023-04-24T13:22:45;0.68;;;0.60;;
57891;SDS011;43708;48.828;9.166;2023-04-24T13:25:11;1.15;;;0.50;;
57891;SDS011;43708;48.828;9.166;2023-04-24T13:27:40;1.23;;;0.80;;
57891;SDS011;43708;48.828;9.166;2023-04-24T13:30:06;0.60;;;0.60;;
57891;SDS011;43708;48.828;9.166;2023-04-24T13:32:32;0.98;;;0.60;;
57891;SDS011;43708;48.828;9.166;2023-04-24T13:34:58;0.57;;;0.57;;
57891;SDS011;43708;48.828;9.166;2023-04-24T13:37:24;0.75;;;0.57;;
57891;SDS011;43708;48.828;9.166;2023-04-24T13:39:49;0.95;;;0.80;;
57891;SDS011;43708;48.828;9.166;2023-04-24T13:42:15;0.60;;;0.50;;
57891;SDS011;43708;48.828;9.166;2023-04-24T13:44:41;1.27;;;0.55;;
57891;SDS011;43708;48.828;9.166;2023-04-24T13:47:06;0.70;;;0.60;;
57891;SDS011;43708;48.828;9.166;2023-04-24T13:49:32;1.20;;;0.82;;
57891;SDS011;43708;48.828;9.166;2023-04-24T13:51:58;1.08;;;0.68;;
57891;SDS011;43708;48.828;9.166;2023-04-24T13:54:23;0.68;;;0.68;;
57891;SDS011;43708;48.828;9.166;2023-04-24T13:56:50;1.10;;;0.70;;
57891;SDS011;43708;48.828;9.166;2023-04-24T13:59:16;0.70;;;0.63;;
57891;SDS011;43708;48.828;9.166;2023-04-24T14:01:42;0.63;;;0.60;;
57891;SDS011;43708;48.828;9.166;2023-04-24T14:04:09;0.75;;;0.52;;
57891;SDS011;43708;48.828;9.166;2023-04-24T14:06:35;1.00;;;0.60;;
57891;SDS011;43708;48.828;9.166;2023-04-24T14:09:01;0.88;;;0.50;;
57891;SDS011;43708;48.828;9.166;2023-04-24T14:11:27;1.15;;;0.70;;
57891;SDS011;43708;48.828;9.166;2023-04-24T14:13:53;0.73;;;0.60;;
57891;SDS011;43708;48.828;9.166;2023-04-24T14:16:21;0.60;;;0.60;;
57891;SDS011;43708;48.828;9.166;2023-04-24T14:18:47;0.93;;;0.60;;
57891;SDS011;43708;48.828;9.166;2023-04-24T14:21:13;0.65;;;0.52;;
57891;SDS011;43708;48.828;9.166;2023-04-24T14:23:38;0.60;;;0.60;;
57891;SDS011;43708;48.828;9.166;2023-04-24T14:26:04;0.50;;;0.50;;
57891;SDS011;43708;48.828;9.166;2023-04-24T14:28:32;0.50;;;0.50;;
57891;SDS011;43708;48.828;9.166;2023-04-24T14:30:58;1.75;;;0.60;;
57891;SDS011;43708;48.828;9.166;2023-04-24T14:33:24;0.65;;;0.60;;
57891;SDS011;43708;48.828;9.166;2023-04-24T14:35:49;0.70;;;0.70;;
57891;SDS011;43708;48.828;9.166;2023-04-24T14:38:15;1.02;;;0.70;;
57891;SDS011;43708;48.828;9.166;2023-04-24T14:40:40;0.55;;;0.55;;
57891;SDS011;43708;48.828;9.166;2023-04-24T14:43:06;1.60;;;0.52;;
57891;SDS011;43708;48.828;9.166;2023-04-24T14:45:32;0.60;;;0.60;;
57891;SDS011;43708;48.828;9.166;2023-04-24T14:47:57;0.65;;;0.50;;
57891;SDS011;43708;48.828;9.166;2023-04-24T14:50:23;0.73;;;0.70;;
57891;SDS011;43708;48.828;9.166;2023-04-24T14:52:52;0.73;;;0.73;;
57891;SDS011;43708;48.828;9.166;2023-04-24T14:55:19;0.50;;;0.50;;
57891;SDS011;43708;48.828;9.166;2023-04-24T14:57:45;0.70;;;0.70;;
57891;SDS011;43708;48.828;9.166;2023-04-24T15:00:10;0.60;;;0.52;;
57891;SDS011;43708;48.828;9.166;2023-04-24T15:02:36;0.50;;;0.50;;